Terminal Aerodrome Forecast
Issued by NWS

Home | Current Version | Previous Version | Text Only | Print | Product List | Glossary On
Versions: 1 2 3 4 5 6 7 8 9 10 11 12 13 14 15 16 17
756
FTUS45 KVEF 192324
TAFBIH
TAF
KBIH 192324Z 2000/2024 15012KT P6SM BKN100
     FM200300 17008KT P6SM BKN100 OVC140
     FM201300 12009KT P6SM VCSH SCT050 OVC100
     FM201700 16015G22KT P6SM VCSH SCT050 OVC080=

USA.gov is the U.S. government's official web portal to all federal, state and local government web resources and services.